sensor_id;sensor_type;location;lat;lon;timestamp;pressure;altitude;pressure_sealevel;temperature;humidity
76609;BME280;65928;53.936;27.540;2023-03-12T00:01:57;96476.78;;;-4.15;73.84
76609;BME280;65928;53.936;27.540;2023-03-12T00:04:24;96953.50;;;-1.18;74.01
76609;BME280;65928;53.936;27.540;2023-03-12T00:06:49;96943.00;;;-1.60;73.73
76609;BME280;65928;53.936;27.540;2023-03-12T00:09:15;97030.69;;;-1.03;73.27
76609;BME280;65928;53.936;27.540;2023-03-12T00:11:40;97013.84;;;-1.15;73.67
76609;BME280;65928;53.936;27.540;2023-03-12T00:14:06;96460.53;;;-4.41;72.30
76609;BME280;65928;53.936;27.540;2023-03-12T00:16:31;97018.63;;;-1.04;73.41
76609;BME280;65928;53.936;27.540;2023-03-12T00:18:57;96441.91;;;-4.49;73.25
76609;BME280;65928;53.936;27.540;2023-03-12T00:21:23;96487.22;;;-3.93;73.11
76609;BME280;65928;53.936;27.540;2023-03-12T00:23:49;96997.16;;;-1.08;74.26
76609;BME280;65928;53.936;27.540;2023-03-12T00:26:15;96476.91;;;-4.18;73.55
76609;BME280;65928;53.936;27.540;2023-03-12T00:28:41;96587.91;;;-3.47;73.17
76609;BME280;65928;53.936;27.540;2023-03-12T00:31:35;97030.50;;;-0.99;73.23
76609;BME280;65928;53.936;27.540;2023-03-12T00:34:02;97116.22;;;-1.03;73.88
76609;BME280;65928;53.936;27.540;2023-03-12T00:36:30;96909.13;;;-1.77;72.69
76609;BME280;65928;53.936;27.540;2023-03-12T00:38:57;96498.19;;;-4.13;73.04
76609;BME280;65928;53.936;27.540;2023-03-12T00:41:23;96944.81;;;-1.39;72.97
76609;BME280;65928;53.936;27.540;2023-03-12T00:43:50;96747.97;;;-2.98;72.42
76609;BME280;65928;53.936;27.540;2023-03-12T00:46:16;97156.84;;;-0.80;73.51
76609;BME280;65928;53.936;27.540;2023-03-12T00:48:42;97049.66;;;-1.03;73.23
76609;BME280;65928;53.936;27.540;2023-03-12T00:51:07;96521.47;;;-4.40;72.31
76609;BME280;65928;53.936;27.540;2023-03-12T00:53:33;96545.66;;;-4.18;72.47
76609;BME280;65928;53.936;27.540;2023-03-12T00:55:59;96514.31;;;-4.06;72.94
76609;BME280;65928;53.936;27.540;2023-03-12T00:58:24;96980.13;;;-1.36;72.31
76609;BME280;65928;53.936;27.540;2023-03-12T01:00:50;97084.25;;;-0.80;72.36
76609;BME280;65928;53.936;27.540;2023-03-12T01:03:15;96629.13;;;-3.45;72.68
76609;BME280;65928;53.936;27.540;2023-03-12T01:05:41;96541.75;;;-3.79;71.39
76609;BME280;65928;53.936;27.540;2023-03-12T01:08:08;97165.41;;;-0.55;72.00
76609;BME280;65928;53.936;27.540;2023-03-12T01:10:36;96752.16;;;-2.94;71.09
76609;BME280;65928;53.936;27.540;2023-03-12T01:13:02;96481.22;;;-4.44;71.63
76609;BME280;65928;53.936;27.540;2023-03-12T01:15:28;97178.13;;;-0.96;71.31
76609;BME280;65928;53.936;27.540;2023-03-12T01:17:53;97066.47;;;-0.89;72.03
76609;BME280;65928;53.936;27.540;2023-03-12T01:20:19;97119.88;;;-0.62;71.48
76609;BME280;65928;53.936;27.540;2023-03-12T01:22:45;96575.53;;;-4.13;70.11
76609;BME280;65928;53.936;27.540;2023-03-12T01:25:10;96586.47;;;-3.80;70.29
76609;BME280;65928;53.936;27.540;2023-03-12T01:27:36;97112.06;;;-0.85;70.27
76609;BME280;65928;53.936;27.540;2023-03-12T01:30:03;97096.69;;;-0.67;69.83
76609;BME280;65928;53.936;27.540;2023-03-12T01:32:29;96878.50;;;-2.37;69.91
76609;BME280;65928;53.936;27.540;2023-03-12T01:34:54;97150.34;;;-0.92;70.62
76609;BME280;65928;53.936;27.540;2023-03-12T01:37:21;96665.84;;;-3.62;70.28
76609;BME280;65928;53.936;27.540;2023-03-12T01:39:46;97050.19;;;-1.41;70.18
76609;BME280;65928;53.936;27.540;2023-03-12T01:42:12;97219.06;;;-0.80;69.65
76609;BME280;65928;53.936;27.540;2023-03-12T01:44:58;96627.13;;;-3.87;69.77
76609;BME280;65928;53.936;27.540;2023-03-12T01:47:25;96625.41;;;-3.88;70.09
76609;BME280;65928;53.936;27.540;2023-03-12T01:49:52;97248.72;;;-0.89;69.10
76609;BME280;65928;53.936;27.540;2023-03-12T01:52:26;97120.78;;;-1.34;67.96
76609;BME280;65928;53.936;27.540;2023-03-12T01:55:07;96794.13;;;-3.39;67.84
76609;BME280;65928;53.936;27.540;2023-03-12T01:57:43;97193.56;;;-0.93;68.27
76609;BME280;65928;53.936;27.540;2023-03-12T02:00:14;96634.25;;;-4.21;67.54
76609;BME280;65928;53.936;27.540;2023-03-12T02:02:42;96656.41;;;-4.15;67.88
76609;BME280;65928;53.936;27.540;2023-03-12T02:05:23;97279.75;;;-0.86;68.38
76609;BME280;65928;53.936;27.540;2023-03-12T02:07:50;97043.59;;;-1.74;68.69
76609;BME280;65928;53.936;27.540;2023-03-12T02:10:16;97168.34;;;-0.87;68.83
76609;BME280;65928;53.936;27.540;2023-03-12T02:12:42;96705.78;;;-3.74;68.46
76609;BME280;65928;53.936;27.540;2023-03-12T02:15:07;96687.06;;;-3.80;66.96
76609;BME280;65928;53.936;27.540;2023-03-12T02:17:35;97162.31;;;-1.37;67.17
76609;BME280;65928;53.936;27.540;2023-03-12T02:22:41;97169.84;;;-1.05;67.78
76609;BME280;65928;53.936;27.540;2023-03-12T02:25:20;97295.78;;;-0.75;68.01
76609;BME280;65928;53.936;27.540;2023-03-12T02:27:49;96801.25;;;-3.74;67.94
76609;BME280;65928;53.936;27.540;2023-03-12T02:30:16;97207.25;;;-1.14;67.66
76609;BME280;65928;53.936;27.540;2023-03-12T02:32:43;96698.56;;;-4.16;66.64
76609;BME280;65928;53.936;27.540;2023-03-12T02:35:10;96871.59;;;-3.13;66.04
76609;BME280;65928;53.936;27.540;2023-03-12T02:37:46;96699.31;;;-4.13;66.50
76609;BME280;65928;53.936;27.540;2023-03-12T02:40:34;96784.53;;;-3.62;66.96
76609;BME280;65928;53.936;27.540;2023-03-12T02:43:05;96930.31;;;-2.64;67.69
76609;BME280;65928;53.936;27.540;2023-03-12T02:45:33;96712.50;;;-3.96;66.25
76609;BME280;65928;53.936;27.540;2023-03-12T02:48:01;97098.41;;;-1.88;66.88
76609;BME280;65928;53.936;27.540;2023-03-12T02:50:27;97243.00;;;-0.99;67.21
76609;BME280;65928;53.936;27.540;2023-03-12T02:52:53;97160.63;;;-1.64;66.10
76609;BME280;65928;53.936;27.540;2023-03-12T02:55:18;97250.25;;;-0.83;67.81
76609;BME280;65928;53.936;27.540;2023-03-12T02:57:44;97260.81;;;-0.88;66.76
76609;BME280;65928;53.936;27.540;2023-03-12T03:00:11;96709.69;;;-4.43;65.60
76609;BME280;65928;53.936;27.540;2023-03-12T03:02:40;97231.91;;;-1.81;67.08
76609;BME280;65928;53.936;27.540;2023-03-12T03:05:09;96649.06;;;-4.55;67.64
76609;BME280;65928;53.936;27.540;2023-03-12T03:07:35;97277.34;;;-1.17;65.81
76609;BME280;65928;53.936;27.540;2023-03-12T03:10:00;97271.59;;;-1.00;66.35
76609;BME280;65928;53.936;27.540;2023-03-12T03:12:34;96837.16;;;-3.95;66.09
76609;BME280;65928;53.936;27.540;2023-03-12T03:15:00;97251.53;;;-1.73;65.93
76609;BME280;65928;53.936;27.540;2023-03-12T03:17:26;96797.78;;;-4.29;66.34
76609;BME280;65928;53.936;27.540;2023-03-12T03:19:52;97288.28;;;-1.35;66.40
76609;BME280;65928;53.936;27.540;2023-03-12T03:22:19;97293.56;;;-1.12;67.59
76609;BME280;65928;53.936;27.540;2023-03-12T03:24:44;97268.88;;;-1.49;67.04
76609;BME280;65928;53.936;27.540;2023-03-12T03:27:10;97164.78;;;-2.40;66.93
76609;BME280;65928;53.936;27.540;2023-03-12T03:29:36;97296.97;;;-1.63;68.56
76609;BME280;65928;53.936;27.540;2023-03-12T03:32:03;97209.63;;;-2.12;68.22
76609;BME280;65928;53.936;27.540;2023-03-12T03:34:28;96989.03;;;-3.55;69.04
76609;BME280;65928;53.936;27.540;2023-03-12T03:36:54;97241.88;;;-1.96;68.11
76609;BME280;65928;53.936;27.540;2023-03-12T03:39:19;96790.25;;;-4.68;68.24
76609;BME280;65928;53.936;27.540;2023-03-12T03:41:45;97282.69;;;-1.76;69.00
76609;BME280;65928;53.936;27.540;2023-03-12T03:44:12;97305.16;;;-1.77;68.53
76609;BME280;65928;53.936;27.540;2023-03-12T03:46:37;96917.13;;;-4.27;68.85
76609;BME280;65928;53.936;27.540;2023-03-12T03:49:03;97341.38;;;-2.06;69.75
76609;BME280;65928;53.936;27.540;2023-03-12T03:51:29;96814.84;;;-4.88;68.69
76609;BME280;65928;53.936;27.540;2023-03-12T03:53:54;97296.81;;;-2.16;69.61
76609;BME280;65928;53.936;27.540;2023-03-12T03:56:20;97328.31;;;-2.02;69.53
76609;BME280;65928;53.936;27.540;2023-03-12T03:58:45;97305.25;;;-2.09;69.53
76609;BME280;65928;53.936;27.540;2023-03-12T04:01:13;96794.66;;;-5.37;68.93
76609;BME280;65928;53.936;27.540;2023-03-12T04:03:38;97265.94;;;-2.52;69.61
76609;BME280;65928;53.936;27.540;2023-03-12T04:06:05;97253.28;;;-2.92;70.12
76609;BME280;65928;53.936;27.540;2023-03-12T04:08:31;97347.91;;;-2.24;69.69
76609;BME280;65928;53.936;27.540;2023-03-12T04:11:05;96807.28;;;-5.63;69.43
76609;BME280;65928;53.936;27.540;2023-03-12T04:13:31;97048.47;;;-4.23;70.22
76609;BME280;65928;53.936;27.540;2023-03-12T04:15:56;96790.06;;;-5.61;70.20
76609;BME280;65928;53.936;27.540;2023-03-12T04:18:21;96807.91;;;-5.54;69.51
76609;BME280;65928;53.936;27.540;2023-03-12T04:20:47;97372.22;;;-2.29;69.58
76609;BME280;65928;53.936;27.540;2023-03-12T04:23:12;97237.72;;;-2.91;69.56
76609;BME280;65928;53.936;27.540;2023-03-12T04:25:38;97406.66;;;-2.29;70.32
76609;BME280;65928;53.936;27.540;2023-03-12T04:28:04;97389.56;;;-2.34;70.14
76609;BME280;65928;53.936;27.540;2023-03-12T04:30:30;97375.13;;;-2.41;69.56
76609;BME280;65928;53.936;27.540;2023-03-12T04:32:55;97363.81;;;-2.37;69.86
76609;BME280;65928;53.936;27.540;2023-03-12T04:35:21;97370.88;;;-2.44;70.43
76609;BME280;65928;53.936;27.540;2023-03-12T04:37:46;96855.00;;;-5.52;69.78
76609;BME280;65928;53.936;27.540;2023-03-12T04:40:12;97244.34;;;-3.46;70.07
76609;BME280;65928;53.936;27.540;2023-03-12T04:42:38;96816.59;;;-5.93;69.53
76609;BME280;65928;53.936;27.540;2023-03-12T04:45:05;97360.81;;;-2.54;69.81
76609;BME280;65928;53.936;27.540;2023-03-12T04:47:32;96931.63;;;-5.26;70.20
76609;BME280;65928;53.936;27.540;2023-03-12T04:49:58;97377.66;;;-2.40;70.11
76609;BME280;65928;53.936;27.540;2023-03-12T04:52:24;97340.53;;;-2.69;70.51
76609;BME280;65928;53.936;27.540;2023-03-12T04:54:49;97333.47;;;-2.97;70.04
76609;BME280;65928;53.936;27.540;2023-03-12T04:57:15;97421.88;;;-2.49;70.52
76609;BME280;65928;53.936;27.540;2023-03-12T04:59:40;97411.75;;;-2.93;70.45
76609;BME280;65928;53.936;27.540;2023-03-12T05:02:06;97380.00;;;-2.31;70.13
76609;BME280;65928;53.936;27.540;2023-03-12T05:04:32;97332.09;;;-2.76;69.59
76609;BME280;65928;53.936;27.540;2023-03-12T05:06:57;97328.91;;;-2.87;70.28
76609;BME280;65928;53.936;27.540;2023-03-12T05:09:23;97460.31;;;-2.35;69.94
76609;BME280;65928;53.936;27.540;2023-03-12T05:11:48;97398.41;;;-2.43;70.21
76609;BME280;65928;53.936;27.540;2023-03-12T05:14:14;97338.53;;;-3.27;70.12
76609;BME280;65928;53.936;27.540;2023-03-12T05:16:39;97280.34;;;-3.07;70.05
76609;BME280;65928;53.936;27.540;2023-03-12T05:19:05;97406.09;;;-2.72;70.10
76609;BME280;65928;53.936;27.540;2023-03-12T05:21:30;96960.09;;;-4.97;70.15
76609;BME280;65928;53.936;27.540;2023-03-12T05:23:57;97379.50;;;-2.43;69.72
76609;BME280;65928;53.936;27.540;2023-03-12T05:26:28;96832.25;;;-5.68;70.01
76609;BME280;65928;53.936;27.540;2023-03-12T05:28:56;96847.06;;;-5.41;69.63
76609;BME280;65928;53.936;27.540;2023-03-12T05:31:22;97300.78;;;-2.65;70.10
76609;BME280;65928;53.936;27.540;2023-03-12T05:33:47;96837.97;;;-5.20;69.28
76609;BME280;65928;53.936;27.540;2023-03-12T05:36:13;96853.63;;;-5.29;69.42
76609;BME280;65928;53.936;27.540;2023-03-12T05:38:39;96873.19;;;-4.87;68.69
76609;BME280;65928;53.936;27.540;2023-03-12T05:41:07;97364.38;;;-2.26;68.97
76609;BME280;65928;53.936;27.540;2023-03-12T05:43:32;97399.44;;;-1.86;69.31
76609;BME280;65928;53.936;27.540;2023-03-12T05:46:02;97024.53;;;-3.94;69.28
76609;BME280;65928;53.936;27.540;2023-03-12T05:48:29;97428.88;;;-1.59;68.63
76609;BME280;65928;53.936;27.540;2023-03-12T05:50:55;96821.03;;;-4.95;68.56
76609;BME280;65928;53.936;27.540;2023-03-12T05:53:22;97252.97;;;-2.49;67.25
76609;BME280;65928;53.936;27.540;2023-03-12T05:55:47;97403.59;;;-1.22;67.71
76609;BME280;65928;53.936;27.540;2023-03-12T05:58:12;97400.44;;;-0.77;66.38
76609;BME280;65928;53.936;27.540;2023-03-12T06:00:40;96980.66;;;-3.93;66.94
76609;BME280;65928;53.936;27.540;2023-03-12T06:03:07;97483.63;;;-1.13;67.22
76609;BME280;65928;53.936;27.540;2023-03-12T06:05:34;96945.50;;;-4.29;68.07
76609;BME280;65928;53.936;27.540;2023-03-12T06:08:00;97447.09;;;-1.62;68.78
76609;BME280;65928;53.936;27.540;2023-03-12T06:10:26;97394.91;;;-1.48;68.33
76609;BME280;65928;53.936;27.540;2023-03-12T06:12:52;97493.16;;;-1.73;68.78
76609;BME280;65928;53.936;27.540;2023-03-12T06:15:18;96829.34;;;-5.18;68.78
76609;BME280;65928;53.936;27.540;2023-03-12T06:17:43;97472.84;;;-1.88;69.15
76609;BME280;65928;53.936;27.540;2023-03-12T06:20:09;97092.41;;;-3.60;69.22
76609;BME280;65928;53.936;27.540;2023-03-12T06:22:35;97439.31;;;-1.62;69.44
76609;BME280;65928;53.936;27.540;2023-03-12T06:25:00;97279.88;;;-2.27;68.65
76609;BME280;65928;53.936;27.540;2023-03-12T06:27:26;96913.59;;;-4.56;68.64
76609;BME280;65928;53.936;27.540;2023-03-12T06:29:52;96891.19;;;-4.53;68.38
76609;BME280;65928;53.936;27.540;2023-03-12T06:32:17;97506.59;;;-1.30;68.80
76609;BME280;65928;53.936;27.540;2023-03-12T06:34:43;97001.88;;;-3.52;67.97
76609;BME280;65928;53.936;27.540;2023-03-12T06:37:09;97461.28;;;-0.61;67.08
76609;BME280;65928;53.936;27.540;2023-03-12T06:39:36;96924.56;;;-3.28;65.66
76609;BME280;65928;53.936;27.540;2023-03-12T06:42:02;97420.75;;;0.12;65.73
76609;BME280;65928;53.936;27.540;2023-03-12T06:44:28;97112.75;;;-1.28;64.75
76609;BME280;65928;53.936;27.540;2023-03-12T06:46:53;97435.88;;;0.24;65.07
76609;BME280;65928;53.936;27.540;2023-03-12T06:49:19;96988.84;;;-3.19;65.58
76609;BME280;65928;53.936;27.540;2023-03-12T06:51:44;96988.34;;;-2.75;65.25
76609;BME280;65928;53.936;27.540;2023-03-12T06:54:10;96970.91;;;-2.42;64.59
76609;BME280;65928;53.936;27.540;2023-03-12T06:56:36;97448.34;;;-0.11;65.64
76609;BME280;65928;53.936;27.540;2023-03-12T06:59:02;97366.44;;;-0.68;65.56
76609;BME280;65928;53.936;27.540;2023-03-12T07:01:27;96935.91;;;-3.33;66.23
76609;BME280;65928;53.936;27.540;2023-03-12T07:03:53;97439.78;;;0.35;65.48
76609;BME280;65928;53.936;27.540;2023-03-12T07:06:20;97446.75;;;-0.39;67.28
76609;BME280;65928;53.936;27.540;2023-03-12T07:08:46;97445.00;;;-0.14;67.18
76609;BME280;65928;53.936;27.540;2023-03-12T07:11:12;97515.75;;;-0.34;66.73
76609;BME280;65928;53.936;27.540;2023-03-12T07:13:39;96952.34;;;-2.81;66.18
76609;BME280;65928;53.936;27.540;2023-03-12T07:16:05;97196.00;;;-1.63;66.16
76609;BME280;65928;53.936;27.540;2023-03-12T07:18:30;97440.00;;;-0.45;67.65
76609;BME280;65928;53.936;27.540;2023-03-12T07:20:56;97489.09;;;-0.13;67.08
76609;BME280;65928;53.936;27.540;2023-03-12T07:23:22;97446.28;;;-0.01;67.14
76609;BME280;65928;53.936;27.540;2023-03-12T07:25:48;97430.03;;;-0.06;66.84
76609;BME280;65928;53.936;27.540;2023-03-12T07:28:14;97222.25;;;-1.48;67.43
76609;BME280;65928;53.936;27.540;2023-03-12T07:30:40;96942.25;;;-2.88;66.31
76609;BME280;65928;53.936;27.540;2023-03-12T07:33:09;97459.13;;;0.04;65.79
76609;BME280;65928;53.936;27.540;2023-03-12T07:35:35;97328.78;;;-0.29;66.29
76609;BME280;65928;53.936;27.540;2023-03-12T07:38:02;97431.75;;;0.43;65.64
76609;BME280;65928;53.936;27.540;2023-03-12T07:40:28;96936.66;;;-2.75;65.81
76609;BME280;65928;53.936;27.540;2023-03-12T07:42:53;97462.53;;;0.04;67.12
76609;BME280;65928;53.936;27.540;2023-03-12T07:45:19;96936.91;;;-2.82;66.54
76609;BME280;65928;53.936;27.540;2023-03-12T07:47:45;97369.91;;;-0.19;66.79
76609;BME280;65928;53.936;27.540;2023-03-12T07:50:11;97454.91;;;0.24;65.81
76609;BME280;65928;53.936;27.540;2023-03-12T07:52:37;96874.13;;;-2.86;65.57
76609;BME280;65928;53.936;27.540;2023-03-12T07:55:03;97013.81;;;-1.86;64.41
76609;BME280;65928;53.936;27.540;2023-03-12T07:57:28;97421.94;;;1.17;64.66
76609;BME280;65928;53.936;27.540;2023-03-12T07:59:54;97023.72;;;-0.58;62.71
76609;BME280;65928;53.936;27.540;2023-03-12T08:02:19;96997.47;;;-1.63;63.42
76609;BME280;65928;53.936;27.540;2023-03-12T08:04:45;97429.47;;;1.45;64.03
76609;BME280;65928;53.936;27.540;2023-03-12T08:07:11;97350.13;;;0.91;62.60
76609;BME280;65928;53.936;27.540;2023-03-12T08:09:37;96924.09;;;-1.39;61.77
76609;BME280;65928;53.936;27.540;2023-03-12T08:12:03;97368.19;;;1.58;61.40
76609;BME280;65928;53.936;27.540;2023-03-12T08:14:29;96902.22;;;-0.67;60.44
76609;BME280;65928;53.936;27.540;2023-03-12T08:16:56;97330.63;;;0.81;61.28
76609;BME280;65928;53.936;27.540;2023-03-12T08:19:23;97370.94;;;1.55;61.86
76609;BME280;65928;53.936;27.540;2023-03-12T08:21:49;97364.34;;;1.05;60.71
76609;BME280;65928;53.936;27.540;2023-03-12T08:24:16;97301.53;;;0.72;60.53
76609;BME280;65928;53.936;27.540;2023-03-12T08:26:42;97322.97;;;1.20;60.46
76609;BME280;65928;53.936;27.540;2023-03-12T08:29:07;97099.63;;;-0.10;59.79
76609;BME280;65928;53.936;27.540;2023-03-12T08:31:32;97326.75;;;1.73;60.51
76609;BME280;65928;53.936;27.540;2023-03-12T08:33:58;97342.28;;;0.71;60.26
76609;BME280;65928;53.936;27.540;2023-03-12T08:36:23;96871.34;;;-2.06;60.83
76609;BME280;65928;53.936;27.540;2023-03-12T08:38:49;96987.59;;;-1.52;61.73
76609;BME280;65928;53.936;27.540;2023-03-12T08:41:14;97427.53;;;1.50;62.32
76609;BME280;65928;53.936;27.540;2023-03-12T08:43:40;97411.25;;;1.45;62.25
76609;BME280;65928;53.936;27.540;2023-03-12T08:46:05;97426.38;;;1.57;62.54
76609;BME280;65928;53.936;27.540;2023-03-12T08:48:32;97003.97;;;-0.19;61.53
76609;BME280;65928;53.936;27.540;2023-03-12T08:50:58;96899.75;;;-1.35;61.87
76609;BME280;65928;53.936;27.540;2023-03-12T08:53:25;96933.03;;;-0.59;61.49
76609;BME280;65928;53.936;27.540;2023-03-12T08:55:52;97421.63;;;1.87;62.21
76609;BME280;65928;53.936;27.540;2023-03-12T08:58:18;96907.13;;;-1.94;63.66
76609;BME280;65928;53.936;27.540;2023-03-12T09:00:44;97391.88;;;1.10;64.79
76609;BME280;65928;53.936;27.540;2023-03-12T09:03:09;97368.00;;;1.62;64.29
76609;BME280;65928;53.936;27.540;2023-03-12T09:05:39;97434.13;;;1.15;64.27
76609;BME280;65928;53.936;27.540;2023-03-12T09:08:04;97096.63;;;-1.12;65.72
76609;BME280;65928;53.936;27.540;2023-03-12T09:10:30;97431.84;;;1.08;66.15
76609;BME280;65928;53.936;27.540;2023-03-12T09:12:55;96950.34;;;-1.96;65.78
76609;BME280;65928;53.936;27.540;2023-03-12T09:15:21;97420.47;;;1.10;66.34
76609;BME280;65928;53.936;27.540;2023-03-12T09:17:46;97410.97;;;1.09;65.89
76609;BME280;65928;53.936;27.540;2023-03-12T09:20:12;97328.19;;;0.99;65.43
76609;BME280;65928;53.936;27.540;2023-03-12T09:22:39;96876.44;;;-2.03;64.78
76609;BME280;65928;53.936;27.540;2023-03-12T09:25:06;96951.75;;;-1.18;64.15
76609;BME280;65928;53.936;27.540;2023-03-12T09:27:40;96977.53;;;-1.36;65.79
76609;BME280;65928;53.936;27.540;2023-03-12T09:30:08;97401.34;;;1.33;65.68
76609;BME280;65928;53.936;27.540;2023-03-12T09:32:34;97459.13;;;1.19;66.50
76609;BME280;65928;53.936;27.540;2023-03-12T09:35:00;96890.38;;;-1.84;67.53
76609;BME280;65928;53.936;27.540;2023-03-12T09:37:25;97485.88;;;1.23;68.31
76609;BME280;65928;53.936;27.540;2023-03-12T09:39:52;96895.63;;;-2.10;67.92
76609;BME280;65928;53.936;27.540;2023-03-12T09:42:42;96910.91;;;-2.27;69.39
76609;BME280;65928;53.936;27.540;2023-03-12T09:45:25;97118.78;;;-1.28;79.82
76609;BME280;65928;53.936;27.540;2023-03-12T09:47:58;96938.50;;;-2.27;70.12
76609;BME280;65928;53.936;27.540;2023-03-12T09:50:31;97454.16;;;1.13;68.23
76609;BME280;65928;53.936;27.540;2023-03-12T09:55:39;97254.81;;;0.70;67.14
76609;BME280;65928;53.936;27.540;2023-03-12T10:00:46;96952.03;;;-0.80;65.19
76609;BME280;65928;53.936;27.540;2023-03-12T10:06:19;97418.50;;;1.58;64.58
76609;BME280;65928;53.936;27.540;2023-03-12T10:11:31;97452.66;;;2.13;65.03
76609;BME280;65928;53.936;27.540;2023-03-12T10:14:21;97529.88;;;1.72;64.88
76609;BME280;65928;53.936;27.540;2023-03-12T10:27:48;97419.13;;;1.00;63.10
76609;BME280;65928;53.936;27.540;2023-03-12T10:30:21;97373.88;;;1.88;62.61
76609;BME280;65928;53.936;27.540;2023-03-12T10:32:52;97473.53;;;1.91;61.49
76609;BME280;65928;53.936;27.540;2023-03-12T10:35:21;97046.66;;;-0.47;60.74
76609;BME280;65928;53.936;27.540;2023-03-12T10:37:59;97372.63;;;1.36;60.81
76609;BME280;65928;53.936;27.540;2023-03-12T10:40:30;97002.44;;;-0.87;59.35
76609;BME280;65928;53.936;27.540;2023-03-12T10:42:56;97277.25;;;1.55;58.62
76609;BME280;65928;53.936;27.540;2023-03-12T10:48:03;97436.78;;;1.78;59.50
76609;BME280;65928;53.936;27.540;2023-03-12T10:50:32;97527.75;;;1.81;59.91
76609;BME280;65928;53.936;27.540;2023-03-12T10:53:29;97465.13;;;1.43;61.58
76609;BME280;65928;53.936;27.540;2023-03-12T10:56:15;97528.03;;;1.31;62.14
76609;BME280;65928;53.936;27.540;2023-03-12T10:58:50;97416.63;;;1.20;61.76
76609;BME280;65928;53.936;27.540;2023-03-12T11:01:23;97467.81;;;2.03;60.96
76609;BME280;65928;53.936;27.540;2023-03-12T11:03:50;97479.47;;;1.74;59.94
76609;BME280;65928;53.936;27.540;2023-03-12T11:06:26;97537.91;;;2.29;59.65
76609;BME280;65928;53.936;27.540;2023-03-12T11:11:36;97453.38;;;1.54;59.93
76609;BME280;65928;53.936;27.540;2023-03-12T11:14:25;97023.47;;;-0.73;59.53
76609;BME280;65928;53.936;27.540;2023-03-12T11:16:52;97030.84;;;-0.20;59.12
76609;BME280;65928;53.936;27.540;2023-03-12T11:19:45;97480.13;;;2.40;58.88
76609;BME280;65928;53.936;27.540;2023-03-12T11:22:10;97081.88;;;-0.63;59.23
76609;BME280;65928;53.936;27.540;2023-03-12T11:25:00;97465.63;;;1.94;59.24
76609;BME280;65928;53.936;27.540;2023-03-12T11:27:41;97486.66;;;2.10;60.18
76609;BME280;65928;53.936;27.540;2023-03-12T11:30:13;97478.56;;;2.16;58.11
76609;BME280;65928;53.936;27.540;2023-03-12T11:32:49;97031.97;;;-0.70;58.39
76609;BME280;65928;53.936;27.540;2023-03-12T11:35:20;97400.09;;;1.83;58.00
76609;BME280;65928;53.936;27.540;2023-03-12T11:38:02;97439.31;;;2.00;56.84
76609;BME280;65928;53.936;27.540;2023-03-12T11:43:54;97026.47;;;-0.39;57.48
76609;BME280;65928;53.936;27.540;2023-03-12T11:49:27;97480.41;;;2.14;56.41
76609;BME280;65928;53.936;27.540;2023-03-12T11:52:14;97040.69;;;-0.28;56.82
76609;BME280;65928;53.936;27.540;2023-03-12T11:55:30;97112.81;;;-0.59;56.29
76609;BME280;65928;53.936;27.540;2023-03-12T12:17:53;97606.09;;;0.60;67.27
76609;BME280;65928;53.936;27.540;2023-03-12T12:32:12;96971.16;;;-1.51;63.64
76609;BME280;65928;53.936;27.540;2023-03-12T12:35:41;97532.63;;;1.69;59.54
76609;BME280;65928;53.936;27.540;2023-03-12T12:38:01;97468.69;;;1.62;58.06
76609;BME280;65928;53.936;27.540;2023-03-12T12:45:28;97518.22;;;2.62;55.85
76609;BME280;65928;53.936;27.540;2023-03-12T12:48:31;97531.66;;;2.33;53.41
76609;BME280;65928;53.936;27.540;2023-03-12T12:50:58;97348.09;;;1.41;51.12
76609;BME280;65928;53.936;27.540;2023-03-12T12:53:43;97554.53;;;2.27;50.38
76609;BME280;65928;53.936;27.540;2023-03-12T12:56:38;97540.97;;;2.19;49.66
76609;BME280;65928;53.936;27.540;2023-03-12T12:59:25;97542.88;;;2.35;46.26
76609;BME280;65928;53.936;27.540;2023-03-12T13:01:56;97533.75;;;2.86;46.50
76609;BME280;65928;53.936;27.540;2023-03-12T13:04:37;97030.41;;;-0.96;45.07
76609;BME280;65928;53.936;27.540;2023-03-12T13:07:27;97666.84;;;0.02;61.58
76609;BME280;65928;53.936;27.540;2023-03-12T13:09:49;97634.78;;;-1.78;76.77
76609;BME280;65928;53.936;27.540;2023-03-12T13:13:33;97621.31;;;-1.92;78.95
76609;BME280;65928;53.936;27.540;2023-03-12T13:18:28;97738.34;;;-1.78;77.12
76609;BME280;65928;53.936;27.540;2023-03-12T13:23:54;97521.41;;;-2.31;78.96
76609;BME280;65928;53.936;27.540;2023-03-12T13:31:56;97629.56;;;-0.23;66.92
76609;BME280;65928;53.936;27.540;2023-03-12T13:36:50;97639.66;;;0.40;63.15
76609;BME280;65928;53.936;27.540;2023-03-12T13:39:18;97684.06;;;-0.23;56.53
76609;BME280;65928;53.936;27.540;2023-03-12T13:41:55;97610.88;;;-0.34;56.68
76609;BME280;65928;53.936;27.540;2023-03-12T13:44:29;97665.69;;;-0.16;55.78
76609;BME280;65928;53.936;27.540;2023-03-12T13:47:02;97670.91;;;-0.17;54.53
76609;BME280;65928;53.936;27.540;2023-03-12T13:49:51;97666.66;;;0.36;54.06
76609;BME280;65928;53.936;27.540;2023-03-12T13:52:28;97708.22;;;0.36;53.81
76609;BME280;65928;53.936;27.540;2023-03-12T14:00:28;97654.94;;;0.49;54.78
76609;BME280;65928;53.936;27.540;2023-03-12T14:03:00;97682.78;;;0.19;52.34
76609;BME280;65928;53.936;27.540;2023-03-12T14:05:31;97577.72;;;-0.25;53.06
76609;BME280;65928;53.936;27.540;2023-03-12T14:08:10;97347.75;;;-1.32;53.48
76609;BME280;65928;53.936;27.540;2023-03-12T14:11:17;97674.13;;;0.45;53.62
76609;BME280;65928;53.936;27.540;2023-03-12T14:19:02;97726.63;;;0.28;53.78
76609;BME280;65928;53.936;27.540;2023-03-12T14:21:33;97734.16;;;-0.50;61.31
76609;BME280;65928;53.936;27.540;2023-03-12T14:24:00;97785.03;;;-1.81;80.07
76609;BME280;65928;53.936;27.540;2023-03-12T14:26:29;97425.25;;;-3.98;82.96
76609;BME280;65928;53.936;27.540;2023-03-12T14:29:03;97433.34;;;-3.72;83.77
76609;BME280;65928;53.936;27.540;2023-03-12T14:31:31;97476.19;;;-3.65;84.84
76609;BME280;65928;53.936;27.540;2023-03-12T14:34:06;97478.72;;;-3.22;84.80
76609;BME280;65928;53.936;27.540;2023-03-12T14:37:01;97749.00;;;-1.55;84.80
76609;BME280;65928;53.936;27.540;2023-03-12T14:39:51;97413.03;;;-3.09;82.96
76609;BME280;65928;53.936;27.540;2023-03-12T14:42:37;97690.53;;;-2.00;80.08